SAS3BN EDDN-ENGM
Flight info
| Callsign | SAS3BN |
|---|---|
| Flight time | 1h 53m |
| Altitude | 36000 |
| Route | ERETO1G/28 ERETO DCT LONLI M726 KENIG/N0452F380 M726 EMBOX DCT BUMIL DCT GIMRU DCT SABAK L997 LUNIP |
| Aircraft | A320/M-SDE3FGHIRWY/LB1 |
Departure
| Time | 2026-05-07 13:55 |
|---|---|
| Airport | Nuremberg Airport (EDDN) |
Arrival
| Time | 2026-05-07 15:48 |
|---|---|
| Airport | Oslo-Gardermoen International Airport (ENGM) |
| Time | Latitude | Longitude | Altitude | Speed | Heading |
|---|---|---|---|---|---|
| 2026-05-07 13:09 | 49.49525 | 11.07660 | 1023 ft | 0 kts | 188° |
| 2026-05-07 13:37 | 49.49545 | 11.07664 | 1027 ft | 4 kts | 186° |
| 2026-05-07 13:38 | 49.49572 | 11.07666 | 1027 ft | 4 kts | 173° |
| 2026-05-07 13:38 | 49.49594 | 11.07655 | 1029 ft | 4 kts | 125° |
| 2026-05-07 13:38 | 49.49599 | 11.07643 | 1028 ft | 1 kts | 99° |
| 2026-05-07 13:45 | 49.49598 | 11.07653 | 1030 ft | 4 kts | 99° |
| 2026-05-07 13:45 | 49.49589 | 11.07741 | 1028 ft | 13 kts | 98° |
| 2026-05-07 13:45 | 49.49572 | 11.07912 | 1030 ft | 19 kts | 99° |
| 2026-05-07 13:46 | 49.49552 | 11.08107 | 1030 ft | 15 kts | 99° |
| 2026-05-07 13:46 | 49.49538 | 11.08252 | 1031 ft | 12 kts | 98° |
| 2026-05-07 13:46 | 49.49567 | 11.08355 | 1032 ft | 12 kts | 21° |
| 2026-05-07 13:46 | 49.49613 | 11.08457 | 1031 ft | 14 kts | 92° |
| 2026-05-07 13:47 | 49.49599 | 11.08609 | 1033 ft | 15 kts | 98° |
| 2026-05-07 13:47 | 49.49583 | 11.08768 | 1035 ft | 15 kts | 98° |
| 2026-05-07 13:47 | 49.49567 | 11.08934 | 1037 ft | 16 kts | 98° |
| 2026-05-07 13:47 | 49.49549 | 11.09112 | 1038 ft | 18 kts | 98° |
| 2026-05-07 13:48 | 49.49533 | 11.09273 | 1040 ft | 10 kts | 98° |
| 2026-05-07 13:48 | 49.49542 | 11.09378 | 1042 ft | 11 kts | 60° |
| 2026-05-07 13:48 | 49.49572 | 11.09443 | 1042 ft | 8 kts | 54° |
| 2026-05-07 13:48 | 49.49601 | 11.09502 | 1043 ft | 0 kts | 53° |
| 2026-05-07 13:50 | 49.49605 | 11.09512 | 1043 ft | 6 kts | 54° |
| 2026-05-07 13:50 | 49.49671 | 11.09563 | 1045 ft | 14 kts | 351° |
| 2026-05-07 13:50 | 49.49705 | 11.09478 | 1043 ft | 0 kts | 279° |
| 2026-05-07 13:54 | 49.49707 | 11.09455 | 1043 ft | 18 kts | 278° |
| 2026-05-07 13:54 | 49.49764 | 11.08880 | 1034 ft | 87 kts | 278° |
| 2026-05-07 13:54 | 49.49883 | 11.07676 | 1035 ft | 138 kts | 279° |
| 2026-05-07 13:55 | 49.50035 | 11.06248 | 1532 ft | 138 kts | 279° |
| 2026-05-07 13:55 | 49.50183 | 11.04780 | 2150 ft | 140 kts | 279° |
| 2026-05-07 13:55 | 49.50335 | 11.03223 | 2522 ft | 158 kts | 278° |
| 2026-05-07 13:55 | 49.50507 | 11.01426 | 2827 ft | 181 kts | 279° |
| 2026-05-07 13:56 | 49.50703 | 10.99383 | 3165 ft | 203 kts | 278° |
| 2026-05-07 13:56 | 49.50923 | 10.97116 | 3561 ft | 227 kts | 279° |
| 2026-05-07 13:56 | 49.51229 | 10.94628 | 4121 ft | 245 kts | 290° |
| 2026-05-07 13:56 | 49.52291 | 10.92566 | 4984 ft | 256 kts | 326° |
| 2026-05-07 13:57 | 49.54010 | 10.91728 | 5931 ft | 266 kts | 351° |
| 2026-05-07 13:57 | 49.55885 | 10.91688 | 6704 ft | 274 kts | 0° |
| 2026-05-07 13:57 | 49.57788 | 10.91932 | 6958 ft | 275 kts | 2° |
| 2026-05-07 13:57 | 49.59694 | 10.92232 | 7039 ft | 275 kts | 2° |
| 2026-05-07 13:58 | 49.61602 | 10.92484 | 7045 ft | 275 kts | 1° |
| 2026-05-07 13:58 | 49.63510 | 10.92663 | 7045 ft | 275 kts | 359° |
| 2026-05-07 13:58 | 49.65421 | 10.92783 | 7042 ft | 274 kts | 358° |
| 2026-05-07 13:58 | 49.67326 | 10.92870 | 7045 ft | 274 kts | 360° |
| 2026-05-07 13:59 | 49.69218 | 10.93334 | 7044 ft | 277 kts | 13° |
| 2026-05-07 13:59 | 49.71015 | 10.94439 | 7041 ft | 279 kts | 26° |
| 2026-05-07 13:59 | 49.72623 | 10.96142 | 7034 ft | 282 kts | 38° |
| 2026-05-07 13:59 | 49.74097 | 10.98095 | 7030 ft | 282 kts | 38° |
| 2026-05-07 14:00 | 49.75587 | 11.00070 | 7031 ft | 282 kts | 38° |
| 2026-05-07 14:00 | 49.77077 | 11.02046 | 7031 ft | 282 kts | 38° |
| 2026-05-07 14:00 | 49.78568 | 11.04022 | 7032 ft | 282 kts | 38° |
| 2026-05-07 14:00 | 49.80076 | 11.06019 | 7354 ft | 289 kts | 38° |
| 2026-05-07 14:01 | 49.81592 | 11.08027 | 8346 ft | 287 kts | 38° |
| 2026-05-07 14:01 | 49.83058 | 11.10158 | 9259 ft | 292 kts | 46° |
| 2026-05-07 14:01 | 49.84310 | 11.12674 | 10106 ft | 297 kts | 55° |
| 2026-05-07 14:01 | 49.85338 | 11.15581 | 10488 ft | 320 kts | 63° |
| 2026-05-07 14:02 | 49.86334 | 11.18805 | 10735 ft | 342 kts | 63° |
| 2026-05-07 14:02 | 49.87374 | 11.22183 | 11321 ft | 350 kts | 63° |
| 2026-05-07 14:02 | 49.88428 | 11.25608 | 12017 ft | 354 kts | 63° |
| 2026-05-07 14:02 | 49.89732 | 11.28861 | 12744 ft | 355 kts | 48° |
| 2026-05-07 14:03 | 49.91579 | 11.31381 | 13474 ft | 356 kts | 30° |
| 2026-05-07 14:03 | 49.93833 | 11.32944 | 14139 ft | 356 kts | 12° |
| 2026-05-07 14:03 | 49.96292 | 11.33399 | 14771 ft | 357 kts | 355° |
| 2026-05-07 14:03 | 49.98721 | 11.32705 | 15439 ft | 357 kts | 339° |
| 2026-05-07 14:04 | 50.00916 | 11.30934 | 16136 ft | 356 kts | 322° |
| 2026-05-07 14:04 | 50.02865 | 11.28536 | 16763 ft | 359 kts | 320° |
| 2026-05-07 14:04 | 50.04847 | 11.26140 | 17393 ft | 364 kts | 325° |
| 2026-05-07 14:04 | 50.07082 | 11.24240 | 18035 ft | 368 kts | 336° |
| 2026-05-07 14:05 | 50.09545 | 11.23043 | 18657 ft | 374 kts | 347° |
| 2026-05-07 14:05 | 50.12151 | 11.22636 | 19290 ft | 380 kts | 359° |
| 2026-05-07 14:05 | 50.14802 | 11.22663 | 19902 ft | 383 kts | 359° |
| 2026-05-07 14:05 | 50.17477 | 11.22691 | 20516 ft | 386 kts | 359° |
| 2026-05-07 14:06 | 50.20167 | 11.22715 | 21126 ft | 388 kts | 359° |
| 2026-05-07 14:06 | 50.22874 | 11.22735 | 21722 ft | 390 kts | 359° |
| 2026-05-07 14:06 | 50.25606 | 11.22751 | 22284 ft | 393 kts | 359° |
| 2026-05-07 14:06 | 50.28349 | 11.22764 | 22849 ft | 395 kts | 359° |
| 2026-05-07 14:07 | 50.31104 | 11.22780 | 23399 ft | 398 kts | 359° |
| 2026-05-07 14:07 | 50.33884 | 11.22797 | 23879 ft | 400 kts | 360° |
| 2026-05-07 14:07 | 50.36671 | 11.22719 | 24339 ft | 402 kts | 355° |
| 2026-05-07 14:07 | 50.39461 | 11.22290 | 24784 ft | 404 kts | 355° |
| 2026-05-07 14:08 | 50.42277 | 11.21858 | 25214 ft | 406 kts | 355° |
| 2026-05-07 14:08 | 50.45100 | 11.21431 | 25633 ft | 409 kts | 355° |
| 2026-05-07 14:08 | 50.47938 | 11.21008 | 26040 ft | 411 kts | 355° |
| 2026-05-07 14:08 | 50.50763 | 11.20587 | 26431 ft | 413 kts | 355° |
| 2026-05-07 14:09 | 50.53673 | 11.20150 | 26818 ft | 416 kts | 355° |
| 2026-05-07 14:09 | 50.56572 | 11.19711 | 27142 ft | 421 kts | 355° |
| 2026-05-07 14:09 | 50.59494 | 11.19270 | 27517 ft | 423 kts | 355° |
| 2026-05-07 14:09 | 50.62434 | 11.18826 | 27904 ft | 426 kts | 355° |
| 2026-05-07 14:10 | 50.65397 | 11.18379 | 28279 ft | 429 kts | 355° |
| 2026-05-07 14:10 | 50.68378 | 11.17928 | 28667 ft | 432 kts | 355° |
| 2026-05-07 14:10 | 50.71380 | 11.17472 | 29059 ft | 434 kts | 355° |
| 2026-05-07 14:10 | 50.74401 | 11.17009 | 29463 ft | 437 kts | 355° |
| 2026-05-07 14:11 | 50.77433 | 11.16544 | 29831 ft | 440 kts | 355° |
| 2026-05-07 14:11 | 50.80489 | 11.16076 | 30168 ft | 442 kts | 356° |
| 2026-05-07 14:11 | 50.83550 | 11.15605 | 30552 ft | 442 kts | 355° |
| 2026-05-07 14:11 | 50.86610 | 11.15131 | 30951 ft | 442 kts | 355° |
| 2026-05-07 14:12 | 50.89678 | 11.14659 | 31366 ft | 442 kts | 355° |
| 2026-05-07 14:12 | 50.92711 | 11.14195 | 31772 ft | 442 kts | 355° |
| 2026-05-07 14:12 | 50.95796 | 11.13720 | 32197 ft | 442 kts | 355° |
| 2026-05-07 14:12 | 50.98854 | 11.13249 | 32588 ft | 442 kts | 354° |
| 2026-05-07 14:13 | 51.01919 | 11.12774 | 32980 ft | 443 kts | 354° |
| 2026-05-07 14:13 | 51.04989 | 11.12296 | 33374 ft | 443 kts | 354° |
| 2026-05-07 14:13 | 51.08063 | 11.11816 | 33759 ft | 444 kts | 354° |
| 2026-05-07 14:13 | 51.11150 | 11.11386 | 34143 ft | 445 kts | 358° |
| 2026-05-07 14:14 | 51.14251 | 11.11561 | 34464 ft | 447 kts | 6° |
| 2026-05-07 14:14 | 51.17251 | 11.12405 | 34768 ft | 449 kts | 10° |
| 2026-05-07 14:14 | 51.20312 | 11.13381 | 35077 ft | 449 kts | 10° |
| 2026-05-07 14:14 | 51.23399 | 11.14351 | 35367 ft | 450 kts | 10° |
| 2026-05-07 14:15 | 51.26471 | 11.15307 | 35656 ft | 451 kts | 10° |
| 2026-05-07 14:15 | 51.29550 | 11.16258 | 35957 ft | 452 kts | 10° |
| 2026-05-07 14:15 | 51.32651 | 11.17213 | 36031 ft | 455 kts | 10° |
| 2026-05-07 14:16 | 51.38887 | 11.19149 | 36054 ft | 458 kts | 10° |
| 2026-05-07 14:16 | 51.45132 | 11.21119 | 36054 ft | 458 kts | 10° |
| 2026-05-07 14:17 | 51.51357 | 11.23091 | 36062 ft | 458 kts | 10° |
| 2026-05-07 14:17 | 51.56598 | 11.24744 | 36054 ft | 458 kts | 11° |
| 2026-05-07 14:18 | 51.62863 | 11.26694 | 36058 ft | 458 kts | 9° |
| 2026-05-07 14:18 | 51.69179 | 11.28102 | 36054 ft | 458 kts | 6° |
| 2026-05-07 14:19 | 51.75528 | 11.29144 | 36062 ft | 459 kts | 5° |
| 2026-05-07 14:19 | 51.81878 | 11.30249 | 36072 ft | 459 kts | 6° |
| 2026-05-07 14:20 | 51.88186 | 11.31482 | 36077 ft | 459 kts | 6° |
| 2026-05-07 14:20 | 51.94531 | 11.32751 | 36073 ft | 459 kts | 6° |
| 2026-05-07 14:21 | 52.00915 | 11.34013 | 36078 ft | 459 kts | 6° |
| 2026-05-07 14:21 | 52.07230 | 11.34881 | 36091 ft | 458 kts | 357° |
| 2026-05-07 14:22 | 52.13641 | 11.34496 | 36096 ft | 458 kts | 357° |
| 2026-05-07 14:22 | 52.19959 | 11.34125 | 36095 ft | 457 kts | 357° |
| 2026-05-07 14:23 | 52.26321 | 11.33770 | 36096 ft | 457 kts | 357° |
| 2026-05-07 14:23 | 52.32639 | 11.33403 | 36100 ft | 457 kts | 357° |
| 2026-05-07 14:24 | 52.39039 | 11.33025 | 36085 ft | 457 kts | 357° |
| 2026-05-07 14:24 | 52.45390 | 11.32639 | 36086 ft | 457 kts | 357° |
| 2026-05-07 14:25 | 52.51749 | 11.32258 | 36097 ft | 457 kts | 357° |
| 2026-05-07 14:25 | 52.58059 | 11.31879 | 36096 ft | 457 kts | 357° |
| 2026-05-07 14:26 | 52.64417 | 11.31506 | 36089 ft | 457 kts | 357° |
| 2026-05-07 14:26 | 52.70779 | 11.31121 | 36089 ft | 457 kts | 357° |
| 2026-05-07 14:27 | 52.77126 | 11.30726 | 36095 ft | 457 kts | 356° |
| 2026-05-07 14:27 | 52.83491 | 11.30348 | 36095 ft | 457 kts | 357° |
| 2026-05-07 14:28 | 52.89851 | 11.29967 | 36088 ft | 457 kts | 357° |
| 2026-05-07 14:28 | 52.96209 | 11.29579 | 36082 ft | 457 kts | 356° |
| 2026-05-07 14:29 | 53.02567 | 11.29185 | 36092 ft | 457 kts | 357° |
| 2026-05-07 14:29 | 53.08937 | 11.28800 | 36087 ft | 457 kts | 357° |
| 2026-05-07 14:30 | 53.15296 | 11.28515 | 36099 ft | 457 kts | 359° |
| 2026-05-07 14:30 | 53.21663 | 11.28633 | 36103 ft | 457 kts | 0° |
| 2026-05-07 14:31 | 53.28022 | 11.28877 | 36094 ft | 457 kts | 360° |
| 2026-05-07 14:31 | 53.34363 | 11.29061 | 36089 ft | 457 kts | 0° |
| 2026-05-07 14:32 | 53.40713 | 11.29175 | 36093 ft | 457 kts | 360° |
| 2026-05-07 14:32 | 53.47064 | 11.29253 | 36102 ft | 457 kts | 359° |
| 2026-05-07 14:33 | 53.53427 | 11.29370 | 36103 ft | 456 kts | 359° |
| 2026-05-07 14:33 | 53.59776 | 11.29503 | 36095 ft | 456 kts | 0° |
| 2026-05-07 14:34 | 53.66121 | 11.29626 | 36092 ft | 456 kts | 0° |
| 2026-05-07 14:34 | 53.72458 | 11.29748 | 36103 ft | 456 kts | 0° |
| 2026-05-07 14:35 | 53.78800 | 11.29858 | 36107 ft | 455 kts | 359° |
| 2026-05-07 14:35 | 53.85148 | 11.29983 | 36110 ft | 455 kts | 359° |
| 2026-05-07 14:36 | 53.91484 | 11.30115 | 36111 ft | 455 kts | 359° |
| 2026-05-07 14:36 | 53.97810 | 11.30248 | 36122 ft | 455 kts | 0° |
| 2026-05-07 14:37 | 54.04146 | 11.30365 | 36121 ft | 455 kts | 360° |
| 2026-05-07 14:37 | 54.13628 | 11.30516 | 36127 ft | 455 kts | 360° |
| 2026-05-07 14:38 | 54.19961 | 11.30638 | 36121 ft | 455 kts | 0° |
| 2026-05-07 14:38 | 54.26254 | 11.30767 | 36137 ft | 454 kts | 0° |
| 2026-05-07 14:39 | 54.32575 | 11.30902 | 36140 ft | 454 kts | 359° |
| 2026-05-07 14:39 | 54.38894 | 11.31024 | 36139 ft | 454 kts | 359° |
| 2026-05-07 14:40 | 54.45210 | 11.31151 | 36140 ft | 454 kts | 360° |
| 2026-05-07 14:40 | 54.51525 | 11.31281 | 36151 ft | 453 kts | 0° |
| 2026-05-07 14:41 | 54.57813 | 11.31419 | 36142 ft | 451 kts | 1° |
| 2026-05-07 14:41 | 54.64079 | 11.31880 | 36151 ft | 450 kts | 3° |
| 2026-05-07 14:42 | 54.70328 | 11.32506 | 36144 ft | 449 kts | 3° |
| 2026-05-07 14:42 | 54.76578 | 11.33095 | 36142 ft | 448 kts | 2° |
| 2026-05-07 14:43 | 54.82802 | 11.33612 | 36148 ft | 448 kts | 2° |
| 2026-05-07 14:43 | 54.89024 | 11.34119 | 36140 ft | 447 kts | 2° |
| 2026-05-07 14:44 | 54.95241 | 11.34636 | 36138 ft | 447 kts | 2° |
| 2026-05-07 14:44 | 55.01446 | 11.35163 | 36140 ft | 446 kts | 2° |
| 2026-05-07 14:45 | 55.07644 | 11.35693 | 36142 ft | 446 kts | 2° |
| 2026-05-07 14:45 | 55.13839 | 11.36217 | 36141 ft | 445 kts | 2° |
| 2026-05-07 14:46 | 55.20026 | 11.36743 | 36139 ft | 445 kts | 2° |
| 2026-05-07 14:46 | 55.26209 | 11.37269 | 36140 ft | 445 kts | 2° |
| 2026-05-07 14:47 | 55.32359 | 11.37797 | 36133 ft | 444 kts | 2° |
| 2026-05-07 14:47 | 55.38565 | 11.38340 | 36136 ft | 443 kts | 2° |
| 2026-05-07 14:48 | 55.44682 | 11.38868 | 36138 ft | 443 kts | 2° |
| 2026-05-07 14:48 | 55.50844 | 11.39399 | 36136 ft | 443 kts | 2° |
| 2026-05-07 14:49 | 55.57001 | 11.39929 | 36144 ft | 443 kts | 2° |
| 2026-05-07 14:49 | 55.63156 | 11.40469 | 36139 ft | 443 kts | 2° |
| 2026-05-07 14:50 | 55.69305 | 11.41016 | 36142 ft | 442 kts | 2° |
| 2026-05-07 14:50 | 55.75450 | 11.41559 | 36142 ft | 442 kts | 2° |
| 2026-05-07 14:51 | 55.81603 | 11.42094 | 36143 ft | 442 kts | 2° |
| 2026-05-07 14:51 | 55.87756 | 11.42628 | 36140 ft | 442 kts | 2° |
| 2026-05-07 14:52 | 55.93904 | 11.43171 | 36143 ft | 442 kts | 2° |
| 2026-05-07 14:52 | 56.00051 | 11.43726 | 36141 ft | 442 kts | 2° |
| 2026-05-07 14:53 | 56.06193 | 11.44269 | 36148 ft | 442 kts | 1° |
| 2026-05-07 14:53 | 56.12332 | 11.44807 | 36148 ft | 442 kts | 1° |
| 2026-05-07 14:54 | 56.18475 | 11.45362 | 36146 ft | 442 kts | 1° |
| 2026-05-07 14:54 | 56.24623 | 11.45933 | 36149 ft | 442 kts | 1° |
| 2026-05-07 14:55 | 56.30758 | 11.46495 | 36143 ft | 442 kts | 1° |
| 2026-05-07 14:55 | 56.36886 | 11.47037 | 36151 ft | 441 kts | 1° |
| 2026-05-07 14:56 | 56.43016 | 11.47582 | 36153 ft | 441 kts | 1° |
| 2026-05-07 14:56 | 56.48145 | 11.48048 | 36150 ft | 440 kts | 1° |
| 2026-05-07 14:57 | 56.54218 | 11.48608 | 36147 ft | 440 kts | 1° |
| 2026-05-07 14:57 | 56.60336 | 11.49172 | 36153 ft | 440 kts | 1° |
| 2026-05-07 14:58 | 56.66448 | 11.49734 | 36149 ft | 440 kts | 1° |
| 2026-05-07 14:58 | 56.72558 | 11.50300 | 36144 ft | 440 kts | 1° |
| 2026-05-07 14:59 | 56.78664 | 11.50870 | 36140 ft | 440 kts | 1° |
| 2026-05-07 14:59 | 56.84780 | 11.51437 | 36139 ft | 440 kts | 1° |
| 2026-05-07 15:00 | 56.90897 | 11.52013 | 36148 ft | 440 kts | 0° |
| 2026-05-07 15:00 | 56.97009 | 11.52586 | 36145 ft | 440 kts | 0° |
| 2026-05-07 15:01 | 57.03130 | 11.53156 | 36143 ft | 440 kts | 0° |
| 2026-05-07 15:01 | 57.09249 | 11.53741 | 36142 ft | 440 kts | 0° |
| 2026-05-07 15:02 | 57.15149 | 11.54287 | 36159 ft | 441 kts | 360° |
| 2026-05-07 15:02 | 57.21277 | 11.54859 | 36147 ft | 441 kts | 360° |
| 2026-05-07 15:03 | 57.27343 | 11.55440 | 36144 ft | 441 kts | 360° |
| 2026-05-07 15:03 | 57.33469 | 11.56038 | 36139 ft | 441 kts | 360° |
| 2026-05-07 15:04 | 57.39591 | 11.56619 | 36166 ft | 441 kts | 360° |
| 2026-05-07 15:04 | 57.45725 | 11.57204 | 36148 ft | 441 kts | 359° |
| 2026-05-07 15:05 | 57.51851 | 11.57806 | 36146 ft | 441 kts | 359° |
| 2026-05-07 15:05 | 57.57976 | 11.58400 | 36145 ft | 441 kts | 359° |
| 2026-05-07 15:06 | 57.64104 | 11.59002 | 36140 ft | 441 kts | 359° |
| 2026-05-07 15:06 | 57.70199 | 11.59589 | 36146 ft | 441 kts | 359° |
| 2026-05-07 15:07 | 57.76337 | 11.60180 | 36138 ft | 442 kts | 359° |
| 2026-05-07 15:07 | 57.82476 | 11.60776 | 36134 ft | 442 kts | 359° |
| 2026-05-07 15:08 | 57.88659 | 11.61383 | 36130 ft | 442 kts | 359° |
| 2026-05-07 15:08 | 57.94793 | 11.61998 | 36154 ft | 442 kts | 359° |
| 2026-05-07 15:09 | 58.00931 | 11.62612 | 36146 ft | 442 kts | 359° |
| 2026-05-07 15:09 | 58.07081 | 11.63221 | 36138 ft | 442 kts | 359° |
| 2026-05-07 15:10 | 58.13181 | 11.63827 | 36136 ft | 442 kts | 359° |
| 2026-05-07 15:10 | 58.19340 | 11.63755 | 36143 ft | 436 kts | 347° |
| 2026-05-07 15:11 | 58.25274 | 11.61929 | 36141 ft | 435 kts | 346° |
| 2026-05-07 15:11 | 58.31254 | 11.60079 | 36136 ft | 435 kts | 346° |
| 2026-05-07 15:12 | 58.37278 | 11.58228 | 36137 ft | 435 kts | 346° |
| 2026-05-07 15:12 | 58.43217 | 11.56387 | 36139 ft | 435 kts | 346° |
| 2026-05-07 15:13 | 58.49192 | 11.54520 | 36132 ft | 435 kts | 346° |
| 2026-05-07 15:13 | 58.55158 | 11.52666 | 36118 ft | 433 kts | 346° |
| 2026-05-07 15:14 | 58.61109 | 11.50812 | 36123 ft | 433 kts | 346° |
| 2026-05-07 15:14 | 58.67062 | 11.48935 | 36128 ft | 433 kts | 346° |
| 2026-05-07 15:15 | 58.73018 | 11.47034 | 36126 ft | 433 kts | 346° |
| 2026-05-07 15:15 | 58.78939 | 11.45156 | 35364 ft | 437 kts | 346° |
| 2026-05-07 15:16 | 58.81962 | 11.44196 | 34394 ft | 443 kts | 346° |
| 2026-05-07 15:16 | 58.85029 | 11.43231 | 33644 ft | 438 kts | 345° |
| 2026-05-07 15:16 | 58.88009 | 11.42294 | 32523 ft | 441 kts | 345° |
| 2026-05-07 15:16 | 58.91032 | 11.41339 | 31687 ft | 439 kts | 345° |
| 2026-05-07 15:17 | 58.94016 | 11.40392 | 31232 ft | 431 kts | 345° |
| 2026-05-07 15:17 | 58.96955 | 11.39458 | 30651 ft | 426 kts | 345° |
| 2026-05-07 15:17 | 58.99862 | 11.38527 | 30088 ft | 421 kts | 345° |
| 2026-05-07 15:17 | 59.02732 | 11.37601 | 29478 ft | 416 kts | 345° |
| 2026-05-07 15:18 | 59.05569 | 11.36685 | 28929 ft | 410 kts | 345° |
| 2026-05-07 15:18 | 59.08356 | 11.35784 | 28386 ft | 404 kts | 345° |
| 2026-05-07 15:18 | 59.11116 | 11.34877 | 27911 ft | 398 kts | 343° |
| 2026-05-07 15:18 | 59.13782 | 11.33844 | 27768 ft | 383 kts | 341° |
| 2026-05-07 15:19 | 59.16358 | 11.32846 | 27624 ft | 375 kts | 346° |
| 2026-05-07 15:19 | 59.18951 | 11.32636 | 27483 ft | 374 kts | 357° |
| 2026-05-07 15:19 | 59.21529 | 11.33468 | 27196 ft | 379 kts | 9° |
| 2026-05-07 15:19 | 59.24049 | 11.34987 | 26774 ft | 379 kts | 11° |
| 2026-05-07 15:20 | 59.26554 | 11.36571 | 26380 ft | 377 kts | 11° |
| 2026-05-07 15:20 | 59.29047 | 11.38172 | 25983 ft | 376 kts | 11° |
| 2026-05-07 15:20 | 59.31518 | 11.39768 | 25590 ft | 373 kts | 11° |
| 2026-05-07 15:20 | 59.33982 | 11.41356 | 25182 ft | 371 kts | 11° |
| 2026-05-07 15:21 | 59.36435 | 11.42920 | 24786 ft | 369 kts | 11° |
| 2026-05-07 15:21 | 59.38869 | 11.44465 | 24419 ft | 367 kts | 11° |
| 2026-05-07 15:21 | 59.41291 | 11.45998 | 24034 ft | 365 kts | 11° |
| 2026-05-07 15:21 | 59.43703 | 11.47522 | 23637 ft | 363 kts | 11° |
| 2026-05-07 15:22 | 59.46095 | 11.49038 | 23171 ft | 360 kts | 11° |
| 2026-05-07 15:22 | 59.48476 | 11.50550 | 22716 ft | 358 kts | 11° |
| 2026-05-07 15:22 | 59.50838 | 11.52045 | 22278 ft | 355 kts | 11° |
| 2026-05-07 15:22 | 59.53189 | 11.53526 | 21853 ft | 353 kts | 11° |
| 2026-05-07 15:23 | 59.55525 | 11.54997 | 21424 ft | 351 kts | 11° |
| 2026-05-07 15:23 | 59.57836 | 11.56456 | 21004 ft | 349 kts | 11° |
| 2026-05-07 15:23 | 59.60143 | 11.57919 | 20588 ft | 346 kts | 12° |
| 2026-05-07 15:23 | 59.62429 | 11.59372 | 20192 ft | 344 kts | 12° |
| 2026-05-07 15:24 | 59.64699 | 11.60820 | 19773 ft | 342 kts | 12° |
| 2026-05-07 15:24 | 59.66963 | 11.62268 | 19401 ft | 340 kts | 11° |
| 2026-05-07 15:24 | 59.69179 | 11.63687 | 19024 ft | 338 kts | 12° |
| 2026-05-07 15:24 | 59.71413 | 11.65116 | 18646 ft | 336 kts | 12° |
| 2026-05-07 15:25 | 59.73635 | 11.66541 | 18251 ft | 335 kts | 12° |
| 2026-05-07 15:25 | 59.75846 | 11.67964 | 17834 ft | 333 kts | 12° |
| 2026-05-07 15:25 | 59.78040 | 11.69380 | 17413 ft | 331 kts | 12° |
| 2026-05-07 15:25 | 59.80217 | 11.70783 | 17007 ft | 328 kts | 12° |
| 2026-05-07 15:26 | 59.82387 | 11.72181 | 16607 ft | 326 kts | 13° |
| 2026-05-07 15:26 | 59.84538 | 11.73570 | 16224 ft | 324 kts | 13° |
| 2026-05-07 15:26 | 59.86676 | 11.74950 | 15846 ft | 322 kts | 13° |
| 2026-05-07 15:26 | 59.88803 | 11.76328 | 15458 ft | 320 kts | 13° |
| 2026-05-07 15:27 | 59.90917 | 11.77698 | 15087 ft | 318 kts | 14° |
| 2026-05-07 15:27 | 59.93016 | 11.79058 | 14716 ft | 316 kts | 14° |
| 2026-05-07 15:27 | 59.95105 | 11.80416 | 14356 ft | 315 kts | 14° |
| 2026-05-07 15:27 | 59.97183 | 11.81774 | 14007 ft | 313 kts | 14° |
| 2026-05-07 15:28 | 59.99250 | 11.83129 | 13638 ft | 312 kts | 14° |
| 2026-05-07 15:28 | 60.01301 | 11.84469 | 13246 ft | 310 kts | 14° |
| 2026-05-07 15:28 | 60.03341 | 11.85803 | 12892 ft | 307 kts | 14° |
| 2026-05-07 15:28 | 60.05368 | 11.87133 | 12529 ft | 305 kts | 15° |
| 2026-05-07 15:29 | 60.07378 | 11.88452 | 12159 ft | 303 kts | 15° |
| 2026-05-07 15:29 | 60.09370 | 11.89762 | 11792 ft | 301 kts | 15° |
| 2026-05-07 15:29 | 60.11366 | 11.90968 | 11430 ft | 297 kts | 8° |
| 2026-05-07 15:29 | 60.13394 | 11.91600 | 11072 ft | 294 kts | 5° |
| 2026-05-07 15:30 | 60.15409 | 11.92200 | 10719 ft | 292 kts | 6° |
| 2026-05-07 15:30 | 60.17416 | 11.92806 | 10370 ft | 291 kts | 6° |
| 2026-05-07 15:30 | 60.19408 | 11.93409 | 10035 ft | 289 kts | 6° |
| 2026-05-07 15:30 | 60.21388 | 11.94012 | 9672 ft | 287 kts | 6° |
| 2026-05-07 15:31 | 60.23348 | 11.94602 | 9434 ft | 280 kts | 7° |
| 2026-05-07 15:31 | 60.25243 | 11.95172 | 9297 ft | 271 kts | 7° |
| 2026-05-07 15:31 | 60.27044 | 11.96074 | 9156 ft | 264 kts | 19° |
| 2026-05-07 15:31 | 60.28724 | 11.97385 | 9080 ft | 253 kts | 19° |
| 2026-05-07 15:32 | 60.30351 | 11.98641 | 9082 ft | 250 kts | 19° |
| 2026-05-07 15:32 | 60.31973 | 11.99884 | 9085 ft | 250 kts | 19° |
| 2026-05-07 15:32 | 60.33596 | 12.01124 | 9088 ft | 250 kts | 19° |
| 2026-05-07 15:32 | 60.35222 | 12.02369 | 9085 ft | 250 kts | 19° |
| 2026-05-07 15:33 | 60.36888 | 12.03288 | 9084 ft | 248 kts | 5° |
| 2026-05-07 15:33 | 60.38602 | 12.03404 | 9087 ft | 247 kts | 358° |
| 2026-05-07 15:33 | 60.40321 | 12.03417 | 9087 ft | 247 kts | 358° |
| 2026-05-07 15:33 | 60.42043 | 12.03440 | 9088 ft | 247 kts | 358° |
| 2026-05-07 15:34 | 60.43762 | 12.03466 | 9090 ft | 247 kts | 359° |
| 2026-05-07 15:34 | 60.45480 | 12.03493 | 9094 ft | 247 kts | 359° |
| 2026-05-07 15:34 | 60.47199 | 12.03407 | 9087 ft | 246 kts | 350° |
| 2026-05-07 15:34 | 60.48843 | 12.02533 | 9088 ft | 244 kts | 338° |
| 2026-05-07 15:35 | 60.50439 | 12.01352 | 9094 ft | 244 kts | 338° |
| 2026-05-07 15:35 | 60.52035 | 12.00176 | 9088 ft | 244 kts | 338° |
| 2026-05-07 15:35 | 60.53635 | 11.98999 | 9092 ft | 244 kts | 338° |
| 2026-05-07 15:35 | 60.55237 | 11.97825 | 9090 ft | 244 kts | 338° |
| 2026-05-07 15:36 | 60.56832 | 11.96656 | 9085 ft | 244 kts | 338° |
| 2026-05-07 15:36 | 60.58345 | 11.95126 | 9083 ft | 242 kts | 323° |
| 2026-05-07 15:36 | 60.59697 | 11.93085 | 9084 ft | 242 kts | 321° |
| 2026-05-07 15:36 | 60.61045 | 11.91030 | 9090 ft | 242 kts | 321° |
| 2026-05-07 15:37 | 60.62183 | 11.88576 | 9093 ft | 239 kts | 297° |
| 2026-05-07 15:37 | 60.62573 | 11.86497 | 9094 ft | 238 kts | 280° |
| 2026-05-07 15:37 | 60.62529 | 11.83140 | 8941 ft | 239 kts | 253° |
| 2026-05-07 15:37 | 60.61729 | 11.80227 | 8709 ft | 238 kts | 228° |
| 2026-05-07 15:38 | 60.60561 | 11.77823 | 8491 ft | 238 kts | 226° |
| 2026-05-07 15:38 | 60.59391 | 11.75436 | 8279 ft | 239 kts | 226° |
| 2026-05-07 15:38 | 60.58223 | 11.73045 | 8061 ft | 238 kts | 226° |
| 2026-05-07 15:38 | 60.57062 | 11.70668 | 7850 ft | 237 kts | 226° |
| 2026-05-07 15:39 | 60.55901 | 11.68296 | 7638 ft | 236 kts | 226° |
| 2026-05-07 15:39 | 60.54746 | 11.65936 | 7406 ft | 236 kts | 227° |
| 2026-05-07 15:39 | 60.53648 | 11.63690 | 7170 ft | 235 kts | 226° |
| 2026-05-07 15:39 | 60.52493 | 11.61325 | 6943 ft | 235 kts | 226° |
| 2026-05-07 15:40 | 60.51338 | 11.58973 | 6735 ft | 236 kts | 226° |
| 2026-05-07 15:40 | 60.50183 | 11.56619 | 6526 ft | 236 kts | 226° |
| 2026-05-07 15:40 | 60.49024 | 11.54257 | 6306 ft | 234 kts | 226° |
| 2026-05-07 15:40 | 60.47878 | 11.51933 | 6095 ft | 233 kts | 225° |
| 2026-05-07 15:41 | 60.46734 | 11.49618 | 5865 ft | 232 kts | 225° |
| 2026-05-07 15:41 | 60.45594 | 11.47313 | 5676 ft | 231 kts | 225° |
| 2026-05-07 15:41 | 60.44457 | 11.45003 | 5472 ft | 231 kts | 226° |
| 2026-05-07 15:41 | 60.43324 | 11.42695 | 5264 ft | 230 kts | 226° |
| 2026-05-07 15:42 | 60.42326 | 11.40180 | 5053 ft | 230 kts | 241° |
| 2026-05-07 15:42 | 60.41747 | 11.37183 | 4855 ft | 229 kts | 257° |
| 2026-05-07 15:42 | 60.41370 | 11.34046 | 4655 ft | 229 kts | 256° |
| 2026-05-07 15:42 | 60.40984 | 11.30922 | 4450 ft | 229 kts | 256° |
| 2026-05-07 15:43 | 60.40589 | 11.27886 | 4367 ft | 218 kts | 250° |
| 2026-05-07 15:43 | 60.39865 | 11.25285 | 4283 ft | 208 kts | 231° |
| 2026-05-07 15:43 | 60.38793 | 11.23409 | 4136 ft | 202 kts | 211° |
| 2026-05-07 15:43 | 60.37520 | 11.22374 | 4035 ft | 194 kts | 197° |
| 2026-05-07 15:44 | 60.36267 | 11.21644 | 4016 ft | 180 kts | 197° |
| 2026-05-07 15:44 | 60.35078 | 11.20947 | 3797 ft | 176 kts | 197° |
| 2026-05-07 15:44 | 60.33909 | 11.20265 | 3570 ft | 174 kts | 197° |
| 2026-05-07 15:44 | 60.32751 | 11.19588 | 3335 ft | 173 kts | 197° |
| 2026-05-07 15:45 | 60.31598 | 11.18916 | 3102 ft | 172 kts | 197° |
| 2026-05-07 15:45 | 60.30476 | 11.18263 | 2861 ft | 164 kts | 197° |
| 2026-05-07 15:45 | 60.29423 | 11.17650 | 2671 ft | 149 kts | 197° |
| 2026-05-07 15:45 | 60.28456 | 11.17087 | 2462 ft | 141 kts | 197° |
| 2026-05-07 15:46 | 60.26651 | 11.16038 | 2089 ft | 137 kts | 197° |
| 2026-05-07 15:46 | 60.25742 | 11.15509 | 1901 ft | 136 kts | 197° |
| 2026-05-07 15:46 | 60.24834 | 11.14982 | 1711 ft | 136 kts | 197° |
| 2026-05-07 15:47 | 60.23924 | 11.14454 | 1499 ft | 136 kts | 197° |
| 2026-05-07 15:47 | 60.23018 | 11.13928 | 1319 ft | 136 kts | 197° |
| 2026-05-07 15:47 | 60.22114 | 11.13403 | 1146 ft | 135 kts | 198° |
| 2026-05-07 15:47 | 60.21210 | 11.12879 | 959 ft | 135 kts | 198° |
| 2026-05-07 15:48 | 60.20309 | 11.12358 | 769 ft | 134 kts | 198° |
| 2026-05-07 15:48 | 60.19439 | 11.11854 | 690 ft | 115 kts | 194° |
| 2026-05-07 15:48 | 60.18828 | 11.11502 | 685 ft | 65 kts | 196° |
| 2026-05-07 15:48 | 60.18641 | 11.11393 | 682 ft | 5 kts | 197° |
| 2026-05-07 15:49 | 60.18626 | 11.11385 | 682 ft | 4 kts | 197° |
| 2026-05-07 15:49 | 60.18581 | 11.11355 | 681 ft | 9 kts | 201° |
| 2026-05-07 15:49 | 60.18516 | 11.11278 | 680 ft | 12 kts | 213° |
| 2026-05-07 15:49 | 60.18450 | 11.11155 | 682 ft | 14 kts | 240° |
| 2026-05-07 15:50 | 60.18444 | 11.11011 | 679 ft | 0 kts | 281° |
| 2026-05-07 15:51 | 60.18453 | 11.10963 | 682 ft | 6 kts | 302° |
| 2026-05-07 15:52 | 60.18513 | 11.10930 | 682 ft | 14 kts | 6° |
| 2026-05-07 15:52 | 60.18620 | 11.10990 | 679 ft | 17 kts | 16° |
| 2026-05-07 15:52 | 60.18747 | 11.11064 | 683 ft | 20 kts | 16° |
| 2026-05-07 15:52 | 60.18882 | 11.11142 | 685 ft | 22 kts | 13° |
| 2026-05-07 15:53 | 60.19005 | 11.11212 | 683 ft | 12 kts | 16° |
| 2026-05-07 15:53 | 60.19259 | 11.11353 | 685 ft | 85 kts | 15° |
| 2026-05-07 15:53 | 60.20103 | 11.11739 | 869 ft | 142 kts | 11° |
| 2026-05-07 15:53 | 60.21278 | 11.12252 | 939 ft | 206 kts | 18° |
| 2026-05-07 15:54 | 60.22551 | 11.13321 | 898 ft | 186 kts | 22° |
| 2026-05-07 15:54 | 60.23625 | 11.14403 | 821 ft | 174 kts | 36° |
| 2026-05-07 15:54 | 60.24530 | 11.15821 | 798 ft | 145 kts | 36° |
| 2026-05-07 15:54 | 60.25284 | 11.16855 | 717 ft | 49 kts | 311° |
| 2026-05-07 15:55 | 60.25397 | 11.17054 | 678 ft | 0 kts | 345° |